sensor_id;sensor_type;location;lat;lon;timestamp;P1;P2;P0
77239;PMS7003;66258;53.170;-2.240;2024-01-16T00:01:00;20.33;20.33;17.00
77239;PMS7003;66258;53.170;-2.240;2024-01-16T00:03:27;29.33;23.33;14.67
77239;PMS7003;66258;53.170;-2.240;2024-01-16T00:05:57;21.33;21.33;14.33
77239;PMS7003;66258;53.170;-2.240;2024-01-16T00:08:25;29.33;26.33;13.67
77239;PMS7003;66258;53.170;-2.240;2024-01-16T00:10:52;27.00;23.00;17.00
77239;PMS7003;66258;53.170;-2.240;2024-01-16T00:13:19;22.67;22.67;14.00
77239;PMS7003;66258;53.170;-2.240;2024-01-16T00:15:46;31.00;26.67;18.67
77239;PMS7003;66258;53.170;-2.240;2024-01-16T00:18:14;25.33;25.33;18.00
77239;PMS7003;66258;53.170;-2.240;2024-01-16T00:20:45;25.67;25.67;14.00
77239;PMS7003;66258;53.170;-2.240;2024-01-16T00:23:14;28.00;23.33;17.33
77239;PMS7003;66258;53.170;-2.240;2024-01-16T00:25:41;33.00;27.33;18.33
77239;PMS7003;66258;53.170;-2.240;2024-01-16T00:28:09;24.33;24.33;17.33
77239;PMS7003;66258;53.170;-2.240;2024-01-16T00:30:36;30.33;29.33;17.33
77239;PMS7003;66258;53.170;-2.240;2024-01-16T00:33:06;36.00;34.00;17.33
77239;PMS7003;66258;53.170;-2.240;2024-01-16T00:35:34;32.67;25.33;16.67
77239;PMS7003;66258;53.170;-2.240;2024-01-16T00:38:01;31.67;28.33;19.67
77239;PMS7003;66258;53.170;-2.240;2024-01-16T00:40:30;25.33;25.33;20.33
77239;PMS7003;66258;53.170;-2.240;2024-01-16T00:42:58;28.67;26.33;18.00
77239;PMS7003;66258;53.170;-2.240;2024-01-16T00:45:26;27.33;23.67;17.33
77239;PMS7003;66258;53.170;-2.240;2024-01-16T00:47:54;30.67;28.00;18.00
77239;PMS7003;66258;53.170;-2.240;2024-01-16T00:50:22;36.67;30.67;20.00
77239;PMS7003;66258;53.170;-2.240;2024-01-16T00:52:49;29.00;26.33;17.67
77239;PMS7003;66258;53.170;-2.240;2024-01-16T00:55:16;22.33;20.67;11.67
77239;PMS7003;66258;53.170;-2.240;2024-01-16T00:57:45;37.33;32.00;16.67
77239;PMS7003;66258;53.170;-2.240;2024-01-16T01:00:12;33.67;31.33;19.00
77239;PMS7003;66258;53.170;-2.240;2024-01-16T01:02:40;28.33;25.00;18.00
77239;PMS7003;66258;53.170;-2.240;2024-01-16T01:05:08;36.00;31.33;19.33
77239;PMS7003;66258;53.170;-2.240;2024-01-16T01:07:36;34.67;31.33;17.33
77239;PMS7003;66258;53.170;-2.240;2024-01-16T01:10:04;30.67;29.33;16.00
77239;PMS7003;66258;53.170;-2.240;2024-01-16T01:12:32;30.67;27.00;15.67
77239;PMS7003;66258;53.170;-2.240;2024-01-16T01:15:01;41.33;36.33;19.67
77239;PMS7003;66258;53.170;-2.240;2024-01-16T01:17:28;30.00;26.00;14.00
77239;PMS7003;66258;53.170;-2.240;2024-01-16T01:19:56;22.67;21.67;13.00
77239;PMS7003;66258;53.170;-2.240;2024-01-16T01:22:24;18.67;18.00;13.00
77239;PMS7003;66258;53.170;-2.240;2024-01-16T01:24:52;21.33;18.33;9.00
77239;PMS7003;66258;53.170;-2.240;2024-01-16T01:27:19;24.00;17.33;11.00
77239;PMS7003;66258;53.170;-2.240;2024-01-16T01:29:47;18.00;15.67;10.33
77239;PMS7003;66258;53.170;-2.240;2024-01-16T01:32:16;16.33;16.33;6.33
77239;PMS7003;66258;53.170;-2.240;2024-01-16T01:34:44;12.00;12.00;7.67
77239;PMS7003;66258;53.170;-2.240;2024-01-16T01:37:13;14.33;13.33;7.00
77239;PMS7003;66258;53.170;-2.240;2024-01-16T01:39:41;15.00;13.67;7.67
77239;PMS7003;66258;53.170;-2.240;2024-01-16T01:42:08;13.00;12.33;9.00
77239;PMS7003;66258;53.170;-2.240;2024-01-16T01:44:35;10.67;10.67;6.67
77239;PMS7003;66258;53.170;-2.240;2024-01-16T01:47:03;10.33;10.33;7.00
77239;PMS7003;66258;53.170;-2.240;2024-01-16T01:49:33;14.00;14.00;6.00
77239;PMS7003;66258;53.170;-2.240;2024-01-16T01:52:01;13.00;10.67;7.00
77239;PMS7003;66258;53.170;-2.240;2024-01-16T01:54:31;16.00;10.67;7.33
77239;PMS7003;66258;53.170;-2.240;2024-01-16T01:57:04;13.33;11.00;6.00
77239;PMS7003;66258;53.170;-2.240;2024-01-16T01:59:34;14.67;13.33;9.33
77239;PMS7003;66258;53.170;-2.240;2024-01-16T02:02:02;16.33;14.33;7.67
77239;PMS7003;66258;53.170;-2.240;2024-01-16T02:04:31;11.00;11.00;6.00
77239;PMS7003;66258;53.170;-2.240;2024-01-16T02:07:01;13.67;12.33;9.00
77239;PMS7003;66258;53.170;-2.240;2024-01-16T02:09:28;12.33;12.00;8.67
77239;PMS7003;66258;53.170;-2.240;2024-01-16T02:11:55;13.33;13.33;7.00
77239;PMS7003;66258;53.170;-2.240;2024-01-16T02:14:23;16.33;11.00;7.00
77239;PMS7003;66258;53.170;-2.240;2024-01-16T02:16:51;14.67;14.33;10.00
77239;PMS7003;66258;53.170;-2.240;2024-01-16T02:19:18;13.33;13.33;10.00
77239;PMS7003;66258;53.170;-2.240;2024-01-16T02:21:48;14.67;11.33;7.33
77239;PMS7003;66258;53.170;-2.240;2024-01-16T02:24:19;14.00;13.00;9.00
77239;PMS7003;66258;53.170;-2.240;2024-01-16T02:26:47;10.00;10.00;6.67
77239;PMS7003;66258;53.170;-2.240;2024-01-16T02:29:15;17.67;16.33;11.00
77239;PMS7003;66258;53.170;-2.240;2024-01-16T02:31:43;13.00;13.00;7.00
77239;PMS7003;66258;53.170;-2.240;2024-01-16T02:34:10;16.00;14.67;9.00
77239;PMS7003;66258;53.170;-2.240;2024-01-16T02:36:38;13.33;13.33;10.00
77239;PMS7003;66258;53.170;-2.240;2024-01-16T02:39:05;13.25;13.25;8.00
77239;PMS7003;66258;53.170;-2.240;2024-01-16T02:41:33;14.00;12.50;7.00
77239;PMS7003;66258;53.170;-2.240;2024-01-16T02:44:01;13.33;13.33;7.00
77239;PMS7003;66258;53.170;-2.240;2024-01-16T02:46:28;14.00;11.00;7.50
77239;PMS7003;66258;53.170;-2.240;2024-01-16T02:48:56;9.25;8.50;5.25
77239;PMS7003;66258;53.170;-2.240;2024-01-16T02:51:24;8.75;8.75;5.50
77239;PMS7003;66258;53.170;-2.240;2024-01-16T02:53:51;11.67;9.67;6.67
77239;PMS7003;66258;53.170;-2.240;2024-01-16T02:56:18;13.00;11.33;5.00
77239;PMS7003;66258;53.170;-2.240;2024-01-16T02:58:50;10.33;10.33;5.33
77239;PMS7003;66258;53.170;-2.240;2024-01-16T03:01:17;14.75;12.25;7.00
77239;PMS7003;66258;53.170;-2.240;2024-01-16T03:03:44;11.00;11.00;7.00
77239;PMS7003;66258;53.170;-2.240;2024-01-16T03:06:21;10.67;10.67;5.33
77239;PMS7003;66258;53.170;-2.240;2024-01-16T03:08:50;9.67;9.67;6.00
77239;PMS7003;66258;53.170;-2.240;2024-01-16T03:11:18;14.67;13.00;8.33
77239;PMS7003;66258;53.170;-2.240;2024-01-16T03:13:46;14.00;14.00;7.00
77239;PMS7003;66258;53.170;-2.240;2024-01-16T03:16:15;7.00;6.00;3.00
77239;PMS7003;66258;53.170;-2.240;2024-01-16T03:18:49;14.00;10.67;7.33
77239;PMS7003;66258;53.170;-2.240;2024-01-16T03:21:17;25.33;25.33;22.00
77239;PMS7003;66258;53.170;-2.240;2024-01-16T03:23:44;19.00;16.00;12.67
77239;PMS7003;66258;53.170;-2.240;2024-01-16T03:26:14;49.67;44.67;36.67
77239;PMS7003;66258;53.170;-2.240;2024-01-16T03:28:42;93.25;83.00;80.25
77239;PMS7003;66258;53.170;-2.240;2024-01-16T03:31:09;62.00;53.67;42.33
77239;PMS7003;66258;53.170;-2.240;2024-01-16T03:33:40;86.00;76.00;72.25
77239;PMS7003;66258;53.170;-2.240;2024-01-16T03:36:08;80.75;71.00;64.50
77239;PMS7003;66258;53.170;-2.240;2024-01-16T03:38:35;92.50;84.25;80.75
77239;PMS7003;66258;53.170;-2.240;2024-01-16T03:41:06;90.67;83.33;79.33
77239;PMS7003;66258;53.170;-2.240;2024-01-16T03:43:34;84.67;73.67;69.00
77239;PMS7003;66258;53.170;-2.240;2024-01-16T03:46:01;85.33;76.33;71.00
77239;PMS7003;66258;53.170;-2.240;2024-01-16T03:48:29;81.50;71.00;66.50
77239;PMS7003;66258;53.170;-2.240;2024-01-16T03:50:58;87.67;78.33;74.67
77239;PMS7003;66258;53.170;-2.240;2024-01-16T03:53:26;86.00;77.00;73.00
77239;PMS7003;66258;53.170;-2.240;2024-01-16T03:55:53;78.75;66.75;61.75
77239;PMS7003;66258;53.170;-2.240;2024-01-16T03:58:21;62.75;53.75;46.50
77239;PMS7003;66258;53.170;-2.240;2024-01-16T04:00:49;58.33;50.33;40.33
77239;PMS7003;66258;53.170;-2.240;2024-01-16T04:03:17;46.33;40.67;32.67
77239;PMS7003;66258;53.170;-2.240;2024-01-16T04:05:44;32.00;31.33;26.67
77239;PMS7003;66258;53.170;-2.240;2024-01-16T04:08:14;35.33;34.33;29.33
77239;PMS7003;66258;53.170;-2.240;2024-01-16T04:10:41;23.50;23.50;20.75
77239;PMS7003;66258;53.170;-2.240;2024-01-16T04:13:08;19.75;16.75;12.00
77239;PMS7003;66258;53.170;-2.240;2024-01-16T04:15:37;6.67;4.67;2.00
77239;PMS7003;66258;53.170;-2.240;2024-01-16T04:18:05;5.00;5.00;1.00
77239;PMS7003;66258;53.170;-2.240;2024-01-16T04:20:33;3.00;3.00;1.33
77239;PMS7003;66258;53.170;-2.240;2024-01-16T04:23:01;6.50;5.00;1.50
77239;PMS7003;66258;53.170;-2.240;2024-01-16T04:25:33;6.00;6.00;3.50
77239;PMS7003;66258;53.170;-2.240;2024-01-16T04:28:04;6.67;6.67;3.00
77239;PMS7003;66258;53.170;-2.240;2024-01-16T04:30:31;3.00;3.00;2.00
77239;PMS7003;66258;53.170;-2.240;2024-01-16T04:32:59;7.67;6.33;2.00
77239;PMS7003;66258;53.170;-2.240;2024-01-16T04:35:26;6.67;6.67;2.33
77239;PMS7003;66258;53.170;-2.240;2024-01-16T04:37:54;7.33;4.33;1.33
77239;PMS7003;66258;53.170;-2.240;2024-01-16T04:40:21;3.00;3.00;1.00
77239;PMS7003;66258;53.170;-2.240;2024-01-16T04:42:52;6.00;3.00;1.00
77239;PMS7003;66258;53.170;-2.240;2024-01-16T04:45:20;1.00;1.00;0.00
77239;PMS7003;66258;53.170;-2.240;2024-01-16T04:47:48;2.33;2.33;0.33
77239;PMS7003;66258;53.170;-2.240;2024-01-16T04:50:16;1.33;1.33;0.67
77239;PMS7003;66258;53.170;-2.240;2024-01-16T04:52:43;3.67;1.67;0.67
77239;PMS7003;66258;53.170;-2.240;2024-01-16T04:55:11;6.33;6.00;5.00
77239;PMS7003;66258;53.170;-2.240;2024-01-16T04:57:38;7.33;7.33;2.00
77239;PMS7003;66258;53.170;-2.240;2024-01-16T05:00:07;11.67;10.00;7.33
77239;PMS7003;66258;53.170;-2.240;2024-01-16T05:02:37;52.75;46.75;38.75
77239;PMS7003;66258;53.170;-2.240;2024-01-16T05:05:05;75.25;64.50;58.50
77239;PMS7003;66258;53.170;-2.240;2024-01-16T05:07:33;82.80;71.60;64.80
77239;PMS7003;66258;53.170;-2.240;2024-01-16T05:10:01;20.67;20.67;17.67
77239;PMS7003;66258;53.170;-2.240;2024-01-16T05:12:28;17.33;17.33;15.00
77239;PMS7003;66258;53.170;-2.240;2024-01-16T05:14:56;10.00;9.00;6.67
77239;PMS7003;66258;53.170;-2.240;2024-01-16T05:17:25;4.25;4.25;1.00
77239;PMS7003;66258;53.170;-2.240;2024-01-16T05:19:53;17.25;17.25;13.50
77239;PMS7003;66258;53.170;-2.240;2024-01-16T05:22:20;30.00;28.75;25.25
77239;PMS7003;66258;53.170;-2.240;2024-01-16T05:24:48;8.00;8.00;6.00
77239;PMS7003;66258;53.170;-2.240;2024-01-16T05:27:16;12.33;11.00;7.00
77239;PMS7003;66258;53.170;-2.240;2024-01-16T05:29:43;40.75;37.50;32.00
77239;PMS7003;66258;53.170;-2.240;2024-01-16T05:32:11;21.25;18.25;18.00
77239;PMS7003;66258;53.170;-2.240;2024-01-16T05:34:41;46.00;42.25;32.50
77239;PMS7003;66258;53.170;-2.240;2024-01-16T05:37:09;31.00;29.75;25.00
77239;PMS7003;66258;53.170;-2.240;2024-01-16T05:39:37;70.00;58.50;50.00
77239;PMS7003;66258;53.170;-2.240;2024-01-16T05:42:04;89.00;78.50;76.75
77239;PMS7003;66258;53.170;-2.240;2024-01-16T05:44:32;460.25;459.00;455.75
77239;PMS7003;66258;53.170;-2.240;2024-01-16T05:47:00;44.33;41.33;34.00
77239;PMS7003;66258;53.170;-2.240;2024-01-16T05:49:27;343.80;341.60;329.00
77239;PMS7003;66258;53.170;-2.240;2024-01-16T05:51:56;179.60;177.60;159.00
77239;PMS7003;66258;53.170;-2.240;2024-01-16T05:54:24;68.50;57.00;42.25
77239;PMS7003;66258;53.170;-2.240;2024-01-16T05:56:51;19.67;19.67;17.00
77239;PMS7003;66258;53.170;-2.240;2024-01-16T05:59:20;1016.80;1013.40;978.80
77239;PMS7003;66258;53.170;-2.240;2024-01-16T06:01:48;24.33;24.33;21.33
77239;PMS7003;66258;53.170;-2.240;2024-01-16T06:04:18;423.40;421.20;395.40
77239;PMS7003;66258;53.170;-2.240;2024-01-16T06:06:49;271.20;268.20;243.20
77239;PMS7003;66258;53.170;-2.240;2024-01-16T06:09:18;1122.25;1120.75;1094.25
77239;PMS7003;66258;53.170;-2.240;2024-01-16T06:11:45;84.40;73.40;70.80
77239;PMS7003;66258;53.170;-2.240;2024-01-16T06:14:12;102.50;102.00;89.00
77239;PMS7003;66258;53.170;-2.240;2024-01-16T06:16:39;222.75;222.25;180.75
77239;PMS7003;66258;53.170;-2.240;2024-01-16T06:19:07;68.50;57.50;48.50
77239;PMS7003;66258;53.170;-2.240;2024-01-16T06:21:34;84.75;74.50;69.50
77239;PMS7003;66258;53.170;-2.240;2024-01-16T06:24:02;78.50;67.25;59.25
77239;PMS7003;66258;53.170;-2.240;2024-01-16T06:26:31;90.25;80.25;72.50
77239;PMS7003;66258;53.170;-2.240;2024-01-16T06:28:58;521.25;521.25;489.50
77239;PMS7003;66258;53.170;-2.240;2024-01-16T06:31:26;75.80;64.60;57.60
77239;PMS7003;66258;53.170;-2.240;2024-01-16T06:34:01;79.00;66.40;61.60
77239;PMS7003;66258;53.170;-2.240;2024-01-16T06:36:29;78.75;66.00;61.00
77239;PMS7003;66258;53.170;-2.240;2024-01-16T06:39:03;108.00;107.20;92.00
77239;PMS7003;66258;53.170;-2.240;2024-01-16T06:41:32;942.80;940.20;877.80
77239;PMS7003;66258;53.170;-2.240;2024-01-16T06:44:00;107.00;105.00;79.75
77239;PMS7003;66258;53.170;-2.240;2024-01-16T06:46:27;80.00;67.75;64.25
77239;PMS7003;66258;53.170;-2.240;2024-01-16T06:48:55;396.25;391.75;384.75
77239;PMS7003;66258;53.170;-2.240;2024-01-16T06:51:22;94.75;88.75;82.50
77239;PMS7003;66258;53.170;-2.240;2024-01-16T06:53:50;2649.40;2642.60;2618.00
77239;PMS7003;66258;53.170;-2.240;2024-01-16T06:56:17;525.40;523.00;482.40
77239;PMS7003;66258;53.170;-2.240;2024-01-16T06:58:47;2704.25;2694.25;2662.50
77239;PMS7003;66258;53.170;-2.240;2024-01-16T07:01:14;3002.60;2999.60;2974.20
77239;PMS7003;66258;53.170;-2.240;2024-01-16T07:03:41;2146.60;2146.60;2098.60
77239;PMS7003;66258;53.170;-2.240;2024-01-16T07:06:09;3475.00;3473.40;3456.80
77239;PMS7003;66258;53.170;-2.240;2024-01-16T07:08:37;4177.50;4177.50;4177.50
77239;PMS7003;66258;53.170;-2.240;2024-01-16T07:11:04;4201.40;4201.40;4201.40
77239;PMS7003;66258;53.170;-2.240;2024-01-16T07:13:32;3541.60;3538.00;3521.80
77239;PMS7003;66258;53.170;-2.240;2024-01-16T07:16:01;1913.40;1908.40;1862.40
77239;PMS7003;66258;53.170;-2.240;2024-01-16T07:18:29;3160.40;3158.80;3122.40
77239;PMS7003;66258;53.170;-2.240;2024-01-16T07:20:57;1552.00;1545.25;1510.25
77239;PMS7003;66258;53.170;-2.240;2024-01-16T07:23:24;2503.60;2490.00;2465.60
77239;PMS7003;66258;53.170;-2.240;2024-01-16T07:25:52;4152.50;4152.50;4152.50
77239;PMS7003;66258;53.170;-2.240;2024-01-16T07:28:20;4065.80;4065.80;4065.80
77239;PMS7003;66258;53.170;-2.240;2024-01-16T07:30:47;4190.40;4190.40;4190.40
77239;PMS7003;66258;53.170;-2.240;2024-01-16T07:33:17;4093.50;4093.50;4093.50
77239;PMS7003;66258;53.170;-2.240;2024-01-16T07:35:44;4167.25;4167.25;4167.25
77239;PMS7003;66258;53.170;-2.240;2024-01-16T07:38:12;3754.60;3754.60;3746.60
77239;PMS7003;66258;53.170;-2.240;2024-01-16T07:40:39;1051.00;1050.00;1002.00
77239;PMS7003;66258;53.170;-2.240;2024-01-16T07:43:14;4159.40;4159.40;4159.40
77239;PMS7003;66258;53.170;-2.240;2024-01-16T07:45:42;4203.50;4203.50;4203.50
77239;PMS7003;66258;53.170;-2.240;2024-01-16T07:48:09;3600.20;3600.20;3589.80
77239;PMS7003;66258;53.170;-2.240;2024-01-16T07:50:37;4187.75;4187.75;4187.75
77239;PMS7003;66258;53.170;-2.240;2024-01-16T07:53:04;87.00;76.75;75.25
77239;PMS7003;66258;53.170;-2.240;2024-01-16T07:55:32;3902.60;3902.60;3891.40
77239;PMS7003;66258;53.170;-2.240;2024-01-16T07:57:58;3673.60;3672.60;3660.80
77239;PMS7003;66258;53.170;-2.240;2024-01-16T08:00:25;1504.80;1501.40;1454.60
77239;PMS7003;66258;53.170;-2.240;2024-01-16T08:02:52;3789.60;3789.60;3777.20
77239;PMS7003;66258;53.170;-2.240;2024-01-16T08:05:19;4113.80;4113.60;4110.60
77239;PMS7003;66258;53.170;-2.240;2024-01-16T08:07:48;4042.00;4041.80;4038.80
77239;PMS7003;66258;53.170;-2.240;2024-01-16T08:10:16;3669.40;3669.40;3659.00
77239;PMS7003;66258;53.170;-2.240;2024-01-16T08:12:45;3049.80;3045.60;3009.00
77239;PMS7003;66258;53.170;-2.240;2024-01-16T08:15:13;3113.80;3109.20;3077.60
77239;PMS7003;66258;53.170;-2.240;2024-01-16T08:17:43;2996.60;2993.60;2948.40
77239;PMS7003;66258;53.170;-2.240;2024-01-16T08:20:11;12.00;10.67;8.00
77239;PMS7003;66258;53.170;-2.240;2024-01-16T08:22:39;23.67;20.33;15.33
77239;PMS7003;66258;53.170;-2.240;2024-01-16T08:25:08;12.67;10.33;7.00
77239;PMS7003;66258;53.170;-2.240;2024-01-16T08:27:36;17.67;17.67;16.00
77239;PMS7003;66258;53.170;-2.240;2024-01-16T08:30:03;74.50;65.00;45.00
77239;PMS7003;66258;53.170;-2.240;2024-01-16T08:32:45;484.00;482.50;467.25
77239;PMS7003;66258;53.170;-2.240;2024-01-16T08:35:13;905.20;901.20;858.40
77239;PMS7003;66258;53.170;-2.240;2024-01-16T08:37:41;98.25;96.75;90.75
77239;PMS7003;66258;53.170;-2.240;2024-01-16T08:40:10;101.80;101.40;99.20
77239;PMS7003;66258;53.170;-2.240;2024-01-16T08:42:38;75.50;62.25;43.50
77239;PMS7003;66258;53.170;-2.240;2024-01-16T08:45:07;485.60;482.60;463.40
77239;PMS7003;66258;53.170;-2.240;2024-01-16T08:47:35;1747.80;1744.80;1723.20
77239;PMS7003;66258;53.170;-2.240;2024-01-16T08:50:05;90.25;80.75;63.25
77239;PMS7003;66258;53.170;-2.240;2024-01-16T08:52:34;705.50;704.50;687.75
77239;PMS7003;66258;53.170;-2.240;2024-01-16T08:55:02;381.25;372.50;356.25
77239;PMS7003;66258;53.170;-2.240;2024-01-16T08:57:31;41.50;39.75;31.50
77239;PMS7003;66258;53.170;-2.240;2024-01-16T08:59:59;451.00;451.00;445.75
77239;PMS7003;66258;53.170;-2.240;2024-01-16T09:02:26;71.25;59.25;48.00
77239;PMS7003;66258;53.170;-2.240;2024-01-16T09:04:54;68.33;51.00;34.00
77239;PMS7003;66258;53.170;-2.240;2024-01-16T09:07:22;459.50;454.50;445.25
77239;PMS7003;66258;53.170;-2.240;2024-01-16T09:09:49;33.33;33.33;28.33
77239;PMS7003;66258;53.170;-2.240;2024-01-16T09:12:17;17.00;17.00;13.00
77239;PMS7003;66258;53.170;-2.240;2024-01-16T09:14:45;29.67;27.67;23.00
77239;PMS7003;66258;53.170;-2.240;2024-01-16T09:17:16;28.67;24.00;19.67
77239;PMS7003;66258;53.170;-2.240;2024-01-16T09:19:43;19.00;19.00;16.67
77239;PMS7003;66258;53.170;-2.240;2024-01-16T09:22:11;24.67;22.67;16.33
77239;PMS7003;66258;53.170;-2.240;2024-01-16T09:24:38;50.50;41.50;32.25
77239;PMS7003;66258;53.170;-2.240;2024-01-16T09:27:06;29.00;28.00;20.33
77239;PMS7003;66258;53.170;-2.240;2024-01-16T09:29:33;13.00;11.75;7.50
77239;PMS7003;66258;53.170;-2.240;2024-01-16T09:32:03;11.75;11.75;10.50
77239;PMS7003;66258;53.170;-2.240;2024-01-16T09:34:30;32.67;32.67;26.00
77239;PMS7003;66258;53.170;-2.240;2024-01-16T09:37:00;10.25;8.25;6.00
77239;PMS7003;66258;53.170;-2.240;2024-01-16T09:39:27;17.50;17.50;14.25
77239;PMS7003;66258;53.170;-2.240;2024-01-16T09:41:54;21.67;20.67;18.00
77239;PMS7003;66258;53.170;-2.240;2024-01-16T09:44:22;13.75;13.75;8.25
77239;PMS7003;66258;53.170;-2.240;2024-01-16T09:46:49;12.25;12.25;7.75
77239;PMS7003;66258;53.170;-2.240;2024-01-16T09:49:21;35.33;33.33;26.00
77239;PMS7003;66258;53.170;-2.240;2024-01-16T09:51:52;13.25;13.25;7.25
77239;PMS7003;66258;53.170;-2.240;2024-01-16T09:54:20;11.75;11.75;6.75
77239;PMS7003;66258;53.170;-2.240;2024-01-16T09:56:47;10.75;10.75;7.00
77239;PMS7003;66258;53.170;-2.240;2024-01-16T09:59:21;8.75;8.75;7.00
77239;PMS7003;66258;53.170;-2.240;2024-01-16T10:01:49;29.25;26.50;21.25
77239;PMS7003;66258;53.170;-2.240;2024-01-16T10:04:22;42.00;37.75;28.25
77239;PMS7003;66258;53.170;-2.240;2024-01-16T10:06:50;16.33;16.33;14.33
77239;PMS7003;66258;53.170;-2.240;2024-01-16T10:09:27;13.50;13.50;10.00
77239;PMS7003;66258;53.170;-2.240;2024-01-16T10:11:55;12.00;7.75;4.75
77239;PMS7003;66258;53.170;-2.240;2024-01-16T10:14:24;35.00;32.75;26.00
77239;PMS7003;66258;53.170;-2.240;2024-01-16T10:16:58;56.50;47.25;38.00
77239;PMS7003;66258;53.170;-2.240;2024-01-16T10:19:29;28.50;28.00;23.00
77239;PMS7003;66258;53.170;-2.240;2024-01-16T10:22:12;36.00;34.75;27.25
77239;PMS7003;66258;53.170;-2.240;2024-01-16T10:24:46;58.00;49.67;39.33
77239;PMS7003;66258;53.170;-2.240;2024-01-16T10:27:14;28.75;28.75;22.00
77239;PMS7003;66258;53.170;-2.240;2024-01-16T10:29:45;12.75;12.75;10.25
77239;PMS7003;66258;53.170;-2.240;2024-01-16T10:32:27;8.33;8.33;5.67
77239;PMS7003;66258;53.170;-2.240;2024-01-16T10:35:02;24.67;24.67;22.67
77239;PMS7003;66258;53.170;-2.240;2024-01-16T10:40:16;22.00;22.00;17.25
77239;PMS7003;66258;53.170;-2.240;2024-01-16T10:42:56;7.50;7.50;6.50
77239;PMS7003;66258;53.170;-2.240;2024-01-16T10:45:24;19.33;18.67;14.67
77239;PMS7003;66258;53.170;-2.240;2024-01-16T10:47:55;21.75;19.25;15.00
77239;PMS7003;66258;53.170;-2.240;2024-01-16T10:50:29;22.00;18.67;15.00
77239;PMS7003;66258;53.170;-2.240;2024-01-16T10:52:55;24.33;23.33;21.67
77239;PMS7003;66258;53.170;-2.240;2024-01-16T10:55:26;8.00;8.00;5.75
77239;PMS7003;66258;53.170;-2.240;2024-01-16T10:57:56;14.00;14.00;11.75
77239;PMS7003;66258;53.170;-2.240;2024-01-16T11:00:24;8.00;8.00;3.50
77239;PMS7003;66258;53.170;-2.240;2024-01-16T11:02:54;9.25;9.25;6.25
77239;PMS7003;66258;53.170;-2.240;2024-01-16T11:05:33;8.50;8.50;4.25
77239;PMS7003;66258;53.170;-2.240;2024-01-16T11:08:02;7.50;7.50;4.00
77239;PMS7003;66258;53.170;-2.240;2024-01-16T11:10:32;14.75;14.75;13.25
77239;PMS7003;66258;53.170;-2.240;2024-01-16T11:13:01;14.67;14.67;12.67
77239;PMS7003;66258;53.170;-2.240;2024-01-16T11:15:31;22.00;19.33;16.33
77239;PMS7003;66258;53.170;-2.240;2024-01-16T11:18:00;8.00;8.00;5.50
77239;PMS7003;66258;53.170;-2.240;2024-01-16T11:20:29;12.00;12.00;10.00
77239;PMS7003;66258;53.170;-2.240;2024-01-16T11:23:22;19.33;19.33;16.67
77239;PMS7003;66258;53.170;-2.240;2024-01-16T11:25:50;7.75;7.75;4.75
77239;PMS7003;66258;53.170;-2.240;2024-01-16T11:28:17;21.33;21.33;20.00
77239;PMS7003;66258;53.170;-2.240;2024-01-16T11:30:44;17.00;17.00;15.00
77239;PMS7003;66258;53.170;-2.240;2024-01-16T11:39:21;17.50;17.50;13.00
77239;PMS7003;66258;53.170;-2.240;2024-01-16T11:41:52;16.75;11.75;9.25
77239;PMS7003;66258;53.170;-2.240;2024-01-16T11:44:41;4.75;4.75;2.00
77239;PMS7003;66258;53.170;-2.240;2024-01-16T11:47:16;17.33;17.33;14.00
77239;PMS7003;66258;53.170;-2.240;2024-01-16T11:49:44;18.00;18.00;15.00
77239;PMS7003;66258;53.170;-2.240;2024-01-16T11:52:12;18.25;18.25;17.00
77239;PMS7003;66258;53.170;-2.240;2024-01-16T11:54:40;6.00;4.50;3.25
77239;PMS7003;66258;53.170;-2.240;2024-01-16T12:00:16;40.50;37.50;31.00
77239;PMS7003;66258;53.170;-2.240;2024-01-16T12:02:51;19.25;19.25;18.25
77239;PMS7003;66258;53.170;-2.240;2024-01-16T12:05:21;12.25;12.25;11.25
77239;PMS7003;66258;53.170;-2.240;2024-01-16T12:07:51;12.50;12.50;8.75
77239;PMS7003;66258;53.170;-2.240;2024-01-16T12:10:20;12.75;12.75;9.50
77239;PMS7003;66258;53.170;-2.240;2024-01-16T12:12:49;9.00;9.00;7.50
77239;PMS7003;66258;53.170;-2.240;2024-01-16T12:15:19;11.25;11.25;10.25
77239;PMS7003;66258;53.170;-2.240;2024-01-16T12:17:53;11.00;11.00;10.00
77239;PMS7003;66258;53.170;-2.240;2024-01-16T12:20:22;12.00;12.00;8.75
77239;PMS7003;66258;53.170;-2.240;2024-01-16T12:22:58;15.00;15.00;12.00
77239;PMS7003;66258;53.170;-2.240;2024-01-16T12:25:29;11.75;9.75;7.00
77239;PMS7003;66258;53.170;-2.240;2024-01-16T12:28:19;11.25;11.25;9.75
77239;PMS7003;66258;53.170;-2.240;2024-01-16T12:30:58;12.25;12.25;10.25
77239;PMS7003;66258;53.170;-2.240;2024-01-16T12:33:28;12.25;12.25;8.75
77239;PMS7003;66258;53.170;-2.240;2024-01-16T12:36:00;4.50;4.50;3.00
77239;PMS7003;66258;53.170;-2.240;2024-01-16T12:38:34;7.00;7.00;5.50
77239;PMS7003;66258;53.170;-2.240;2024-01-16T12:41:02;3.00;3.00;2.00
77239;PMS7003;66258;53.170;-2.240;2024-01-16T12:43:34;3.75;1.75;0.25
77239;PMS7003;66258;53.170;-2.240;2024-01-16T12:46:02;2.75;2.50;1.50
77239;PMS7003;66258;53.170;-2.240;2024-01-16T12:48:33;13.25;13.25;12.25
77239;PMS7003;66258;53.170;-2.240;2024-01-16T12:51:02;10.25;7.50;5.25
77239;PMS7003;66258;53.170;-2.240;2024-01-16T12:53:36;3.75;3.75;2.50
77239;PMS7003;66258;53.170;-2.240;2024-01-16T12:56:05;3.50;3.50;3.25
77239;PMS7003;66258;53.170;-2.240;2024-01-16T12:58:32;5.00;5.00;4.00
77239;PMS7003;66258;53.170;-2.240;2024-01-16T13:04:05;16.00;16.00;12.00
77239;PMS7003;66258;53.170;-2.240;2024-01-16T13:06:33;24.25;22.50;20.50
77239;PMS7003;66258;53.170;-2.240;2024-01-16T13:09:06;32.50;32.00;25.50
77239;PMS7003;66258;53.170;-2.240;2024-01-16T13:11:44;23.25;21.25;18.50
77239;PMS7003;66258;53.170;-2.240;2024-01-16T13:14:11;19.25;19.25;18.25
77239;PMS7003;66258;53.170;-2.240;2024-01-16T13:16:38;28.75;28.25;23.50
77239;PMS7003;66258;53.170;-2.240;2024-01-16T13:19:16;31.25;29.75;25.25
77239;PMS7003;66258;53.170;-2.240;2024-01-16T13:21:44;26.50;24.75;21.75
77239;PMS7003;66258;53.170;-2.240;2024-01-16T13:24:14;34.75;33.75;27.25
77239;PMS7003;66258;53.170;-2.240;2024-01-16T13:26:45;24.75;23.00;20.00
77239;PMS7003;66258;53.170;-2.240;2024-01-16T13:29:14;21.00;21.00;17.50
77239;PMS7003;66258;53.170;-2.240;2024-01-16T13:31:42;14.25;14.25;13.50
77239;PMS7003;66258;53.170;-2.240;2024-01-16T13:34:10;9.00;8.50;6.00
77239;PMS7003;66258;53.170;-2.240;2024-01-16T13:36:37;17.25;16.75;12.75
77239;PMS7003;66258;53.170;-2.240;2024-01-16T13:39:25;4.25;4.25;1.75
77239;PMS7003;66258;53.170;-2.240;2024-01-16T13:41:52;4.00;4.00;1.75
77239;PMS7003;66258;53.170;-2.240;2024-01-16T13:44:19;4.00;4.00;2.00
77239;PMS7003;66258;53.170;-2.240;2024-01-16T13:46:49;3.00;3.00;2.50
77239;PMS7003;66258;53.170;-2.240;2024-01-16T13:49:31;4.00;4.00;2.00
77239;PMS7003;66258;53.170;-2.240;2024-01-16T13:52:03;5.25;5.25;3.25
77239;PMS7003;66258;53.170;-2.240;2024-01-16T13:54:33;10.75;10.75;8.75
77239;PMS7003;66258;53.170;-2.240;2024-01-16T13:57:03;12.00;11.00;7.00